sensor_id;sensor_type;location;lat;lon;timestamp;temperature;humidity
3268;DHT22;1646;52.450;13.326;2023-03-13T00:00:09;7.30;99.90
3268;DHT22;1646;52.450;13.326;2023-03-13T00:05:08;7.40;99.90
3268;DHT22;1646;52.450;13.326;2023-03-13T00:10:07;7.40;99.90
3268;DHT22;1646;52.450;13.326;2023-03-13T00:15:08;7.40;99.90
3268;DHT22;1646;52.450;13.326;2023-03-13T00:20:08;7.50;99.90
3268;DHT22;1646;52.450;13.326;2023-03-13T00:25:07;7.50;99.90
3268;DHT22;1646;52.450;13.326;2023-03-13T00:30:06;7.50;99.90
3268;DHT22;1646;52.450;13.326;2023-03-13T00:35:06;7.60;99.90
3268;DHT22;1646;52.450;13.326;2023-03-13T00:40:06;7.70;99.90
3268;DHT22;1646;52.450;13.326;2023-03-13T00:45:05;7.70;99.90
3268;DHT22;1646;52.450;13.326;2023-03-13T00:50:06;7.70;99.90
3268;DHT22;1646;52.450;13.326;2023-03-13T00:55:06;7.80;99.90
3268;DHT22;1646;52.450;13.326;2023-03-13T01:00:05;7.80;99.90
3268;DHT22;1646;52.450;13.326;2023-03-13T01:05:06;7.80;99.90
3268;DHT22;1646;52.450;13.326;2023-03-13T01:10:06;7.80;99.90
3268;DHT22;1646;52.450;13.326;2023-03-13T01:15:05;7.80;99.90
3268;DHT22;1646;52.450;13.326;2023-03-13T01:20:06;7.80;99.90
3268;DHT22;1646;52.450;13.326;2023-03-13T01:25:06;7.80;99.90
3268;DHT22;1646;52.450;13.326;2023-03-13T01:30:06;7.90;99.90
3268;DHT22;1646;52.450;13.326;2023-03-13T01:35:07;7.90;99.90
3268;DHT22;1646;52.450;13.326;2023-03-13T01:40:07;7.90;99.90
3268;DHT22;1646;52.450;13.326;2023-03-13T01:50:21;7.90;99.90
3268;DHT22;1646;52.450;13.326;2023-03-13T01:55:39;7.90;99.90
3268;DHT22;1646;52.450;13.326;2023-03-13T02:00:38;7.90;99.90
3268;DHT22;1646;52.450;13.326;2023-03-13T02:05:41;7.90;99.90
3268;DHT22;1646;52.450;13.326;2023-03-13T02:10:47;7.90;99.90
3268;DHT22;1646;52.450;13.326;2023-03-13T02:15:47;8.00;99.90
3268;DHT22;1646;52.450;13.326;2023-03-13T02:20:48;8.00;99.90
3268;DHT22;1646;52.450;13.326;2023-03-13T02:25:52;8.00;99.90
3268;DHT22;1646;52.450;13.326;2023-03-13T02:30:56;8.10;99.90
3268;DHT22;1646;52.450;13.326;2023-03-13T02:35:55;8.10;99.90
3268;DHT22;1646;52.450;13.326;2023-03-13T02:40:56;8.20;99.90
3268;DHT22;1646;52.450;13.326;2023-03-13T02:46:05;8.30;99.90
3268;DHT22;1646;52.450;13.326;2023-03-13T02:51:12;8.20;99.90
3268;DHT22;1646;52.450;13.326;2023-03-13T02:56:14;8.30;99.90
3268;DHT22;1646;52.450;13.326;2023-03-13T03:01:14;8.30;99.90
3268;DHT22;1646;52.450;13.326;2023-03-13T03:06:15;8.40;99.90
3268;DHT22;1646;52.450;13.326;2023-03-13T03:11:16;8.40;99.90
3268;DHT22;1646;52.450;13.326;2023-03-13T03:16:19;8.50;99.90
3268;DHT22;1646;52.450;13.326;2023-03-13T03:21:18;8.60;99.90
3268;DHT22;1646;52.450;13.326;2023-03-13T03:26:19;8.60;99.90
3268;DHT22;1646;52.450;13.326;2023-03-13T03:31:17;8.60;99.90
3268;DHT22;1646;52.450;13.326;2023-03-13T03:36:18;8.60;99.90
3268;DHT22;1646;52.450;13.326;2023-03-13T03:41:19;8.60;99.90
3268;DHT22;1646;52.450;13.326;2023-03-13T03:46:18;8.60;99.90
3268;DHT22;1646;52.450;13.326;2023-03-13T03:51:16;8.60;99.90
3268;DHT22;1646;52.450;13.326;2023-03-13T03:56:16;8.60;99.90
3268;DHT22;1646;52.450;13.326;2023-03-13T04:01:35;8.50;99.90
3268;DHT22;1646;52.450;13.326;2023-03-13T04:06:34;8.50;99.90
3268;DHT22;1646;52.450;13.326;2023-03-13T04:11:34;8.50;99.90
3268;DHT22;1646;52.450;13.326;2023-03-13T04:16:36;8.60;99.90
3268;DHT22;1646;52.450;13.326;2023-03-13T04:21:35;8.60;99.90
3268;DHT22;1646;52.450;13.326;2023-03-13T04:26:38;8.70;99.90
3268;DHT22;1646;52.450;13.326;2023-03-13T04:31:38;8.70;99.90
3268;DHT22;1646;52.450;13.326;2023-03-13T04:36:52;8.80;99.90
3268;DHT22;1646;52.450;13.326;2023-03-13T04:42:10;8.80;99.90
3268;DHT22;1646;52.450;13.326;2023-03-13T04:47:26;8.70;99.90
3268;DHT22;1646;52.450;13.326;2023-03-13T04:52:43;8.60;99.90
3268;DHT22;1646;52.450;13.326;2023-03-13T04:58:00;8.70;99.90
3268;DHT22;1646;52.450;13.326;2023-03-13T05:03:18;8.70;99.90
3268;DHT22;1646;52.450;13.326;2023-03-13T05:08:37;8.70;99.90
3268;DHT22;1646;52.450;13.326;2023-03-13T05:13:58;8.60;99.90
3268;DHT22;1646;52.450;13.326;2023-03-13T05:19:16;8.60;99.90
3268;DHT22;1646;52.450;13.326;2023-03-13T05:24:30;8.60;99.90
3268;DHT22;1646;52.450;13.326;2023-03-13T05:29:47;8.70;99.90
3268;DHT22;1646;52.450;13.326;2023-03-13T05:34:57;8.70;99.90
3268;DHT22;1646;52.450;13.326;2023-03-13T05:40:15;8.70;99.90
3268;DHT22;1646;52.450;13.326;2023-03-13T05:45:33;8.60;99.90
3268;DHT22;1646;52.450;13.326;2023-03-13T05:50:52;8.60;99.90
3268;DHT22;1646;52.450;13.326;2023-03-13T05:56:10;8.70;99.90
3268;DHT22;1646;52.450;13.326;2023-03-13T06:01:27;8.50;99.90
3268;DHT22;1646;52.450;13.326;2023-03-13T06:06:39;8.50;99.90
3268;DHT22;1646;52.450;13.326;2023-03-13T06:11:38;8.40;99.90
3268;DHT22;1646;52.450;13.326;2023-03-13T06:16:38;8.40;99.90
3268;DHT22;1646;52.450;13.326;2023-03-13T06:21:49;8.40;99.90
3268;DHT22;1646;52.450;13.326;2023-03-13T06:26:47;8.50;99.90
3268;DHT22;1646;52.450;13.326;2023-03-13T06:31:46;8.40;99.90
3268;DHT22;1646;52.450;13.326;2023-03-13T06:36:45;8.40;99.90
3268;DHT22;1646;52.450;13.326;2023-03-13T06:41:44;8.40;99.90
3268;DHT22;1646;52.450;13.326;2023-03-13T06:46:42;8.40;99.90
3268;DHT22;1646;52.450;13.326;2023-03-13T06:51:41;8.50;99.90
3268;DHT22;1646;52.450;13.326;2023-03-13T06:56:39;8.50;99.90
3268;DHT22;1646;52.450;13.326;2023-03-13T07:01:39;8.60;99.90
3268;DHT22;1646;52.450;13.326;2023-03-13T07:06:37;8.60;99.90
3268;DHT22;1646;52.450;13.326;2023-03-13T07:11:35;8.70;99.90
3268;DHT22;1646;52.450;13.326;2023-03-13T07:16:34;8.70;99.90
3268;DHT22;1646;52.450;13.326;2023-03-13T07:21:33;8.80;99.90
3268;DHT22;1646;52.450;13.326;2023-03-13T07:26:32;8.70;99.90
3268;DHT22;1646;52.450;13.326;2023-03-13T07:31:30;8.80;99.90
3268;DHT22;1646;52.450;13.326;2023-03-13T07:36:30;8.90;99.90
3268;DHT22;1646;52.450;13.326;2023-03-13T07:41:32;8.90;99.90
3268;DHT22;1646;52.450;13.326;2023-03-13T07:46:31;8.80;99.90
3268;DHT22;1646;52.450;13.326;2023-03-13T07:51:29;8.90;99.90
3268;DHT22;1646;52.450;13.326;2023-03-13T07:56:41;9.00;99.90
3268;DHT22;1646;52.450;13.326;2023-03-13T08:01:39;9.20;99.90
3268;DHT22;1646;52.450;13.326;2023-03-13T08:06:38;9.20;99.90
3268;DHT22;1646;52.450;13.326;2023-03-13T08:11:38;9.20;99.90
3268;DHT22;1646;52.450;13.326;2023-03-13T08:16:38;9.20;99.90
3268;DHT22;1646;52.450;13.326;2023-03-13T08:21:37;9.30;99.90
3268;DHT22;1646;52.450;13.326;2023-03-13T08:26:36;9.40;99.90
3268;DHT22;1646;52.450;13.326;2023-03-13T08:31:41;9.40;99.90
3268;DHT22;1646;52.450;13.326;2023-03-13T08:36:40;9.40;99.90
3268;DHT22;1646;52.450;13.326;2023-03-13T08:41:38;9.40;99.90
3268;DHT22;1646;52.450;13.326;2023-03-13T08:46:39;9.30;99.90
3268;DHT22;1646;52.450;13.326;2023-03-13T08:51:38;9.40;99.90
3268;DHT22;1646;52.450;13.326;2023-03-13T08:56:36;9.60;99.90
3268;DHT22;1646;52.450;13.326;2023-03-13T09:01:36;9.50;99.90
3268;DHT22;1646;52.450;13.326;2023-03-13T09:06:37;9.60;99.90
3268;DHT22;1646;52.450;13.326;2023-03-13T09:11:36;9.70;99.90
3268;DHT22;1646;52.450;13.326;2023-03-13T09:16:35;9.80;99.90
3268;DHT22;1646;52.450;13.326;2023-03-13T09:21:35;9.90;99.90
3268;DHT22;1646;52.450;13.326;2023-03-13T09:26:34;9.90;99.90
3268;DHT22;1646;52.450;13.326;2023-03-13T09:31:32;9.90;99.90
3268;DHT22;1646;52.450;13.326;2023-03-13T09:36:31;10.00;99.90
3268;DHT22;1646;52.450;13.326;2023-03-13T09:41:35;10.10;99.90
3268;DHT22;1646;52.450;13.326;2023-03-13T09:46:39;10.00;99.90
3268;DHT22;1646;52.450;13.326;2023-03-13T09:51:40;10.10;99.90
3268;DHT22;1646;52.450;13.326;2023-03-13T09:56:44;10.20;99.90
3268;DHT22;1646;52.450;13.326;2023-03-13T10:01:46;10.30;99.90
3268;DHT22;1646;52.450;13.326;2023-03-13T10:06:46;10.40;99.90
3268;DHT22;1646;52.450;13.326;2023-03-13T10:11:52;10.40;99.90
3268;DHT22;1646;52.450;13.326;2023-03-13T10:16:55;10.50;99.90
3268;DHT22;1646;52.450;13.326;2023-03-13T10:21:56;10.50;99.90
3268;DHT22;1646;52.450;13.326;2023-03-13T10:26:57;10.70;99.90
3268;DHT22;1646;52.450;13.326;2023-03-13T10:31:57;10.80;99.90
3268;DHT22;1646;52.450;13.326;2023-03-13T10:36:59;11.00;99.90
3268;DHT22;1646;52.450;13.326;2023-03-13T10:42:08;11.10;99.90
3268;DHT22;1646;52.450;13.326;2023-03-13T10:47:11;11.20;99.90
3268;DHT22;1646;52.450;13.326;2023-03-13T10:52:30;11.30;99.90
3268;DHT22;1646;52.450;13.326;2023-03-13T10:57:30;11.50;99.90
3268;DHT22;1646;52.450;13.326;2023-03-13T11:02:33;11.70;99.90
3268;DHT22;1646;52.450;13.326;2023-03-13T11:07:33;11.90;99.90
3268;DHT22;1646;52.450;13.326;2023-03-13T11:12:43;12.10;99.90
3268;DHT22;1646;52.450;13.326;2023-03-13T11:17:42;12.20;99.90
3268;DHT22;1646;52.450;13.326;2023-03-13T11:23:06;12.30;99.90
3268;DHT22;1646;52.450;13.326;2023-03-13T11:28:21;12.60;99.90
3268;DHT22;1646;52.450;13.326;2023-03-13T11:33:28;12.90;99.90
3268;DHT22;1646;52.450;13.326;2023-03-13T11:38:34;13.30;99.90
3268;DHT22;1646;52.450;13.326;2023-03-13T11:43:44;13.40;99.90
3268;DHT22;1646;52.450;13.326;2023-03-13T11:54:43;13.80;99.90
3268;DHT22;1646;52.450;13.326;2023-03-13T11:59:52;13.80;99.90
3268;DHT22;1646;52.450;13.326;2023-03-13T12:04:57;13.70;99.90
3268;DHT22;1646;52.450;13.326;2023-03-13T12:09:59;13.70;99.90
3268;DHT22;1646;52.450;13.326;2023-03-13T12:15:04;13.90;99.90
3268;DHT22;1646;52.450;13.326;2023-03-13T12:20:10;14.50;99.90
3268;DHT22;1646;52.450;13.326;2023-03-13T12:25:15;14.80;99.90
3268;DHT22;1646;52.450;13.326;2023-03-13T12:30:24;14.90;99.90
3268;DHT22;1646;52.450;13.326;2023-03-13T12:35:26;15.10;99.90
3268;DHT22;1646;52.450;13.326;2023-03-13T12:40:30;15.50;99.90
3268;DHT22;1646;52.450;13.326;2023-03-13T12:45:32;15.80;99.90
3268;DHT22;1646;52.450;13.326;2023-03-13T12:50:42;15.90;99.90
3268;DHT22;1646;52.450;13.326;2023-03-13T12:55:57;16.00;99.90
3268;DHT22;1646;52.450;13.326;2023-03-13T13:01:03;16.30;99.90
3268;DHT22;1646;52.450;13.326;2023-03-13T13:06:08;16.70;99.90
3268;DHT22;1646;52.450;13.326;2023-03-13T13:11:43;17.00;99.90
3268;DHT22;1646;52.450;13.326;2023-03-13T13:16:46;17.10;99.90
3268;DHT22;1646;52.450;13.326;2023-03-13T13:21:46;17.00;99.90
3268;DHT22;1646;52.450;13.326;2023-03-13T13:26:48;16.80;99.90
3268;DHT22;1646;52.450;13.326;2023-03-13T13:31:56;16.70;99.90
3268;DHT22;1646;52.450;13.326;2023-03-13T13:36:56;17.00;99.90
3268;DHT22;1646;52.450;13.326;2023-03-13T13:41:55;17.10;99.90
3268;DHT22;1646;52.450;13.326;2023-03-13T13:46:56;16.80;99.90
3268;DHT22;1646;52.450;13.326;2023-03-13T13:57:31;16.70;99.90
3268;DHT22;1646;52.450;13.326;2023-03-13T14:02:34;16.60;99.90
3268;DHT22;1646;52.450;13.326;2023-03-13T14:07:47;16.70;99.90
3268;DHT22;1646;52.450;13.326;2023-03-13T14:12:46;16.80;99.90
3268;DHT22;1646;52.450;13.326;2023-03-13T14:17:51;16.80;99.90
3268;DHT22;1646;52.450;13.326;2023-03-13T14:22:50;16.80;99.90
3268;DHT22;1646;52.450;13.326;2023-03-13T14:27:51;16.80;99.90
3268;DHT22;1646;52.450;13.326;2023-03-13T14:32:51;16.80;99.90
3268;DHT22;1646;52.450;13.326;2023-03-13T14:37:51;16.80;99.90
3268;DHT22;1646;52.450;13.326;2023-03-13T14:42:51;16.60;99.90
3268;DHT22;1646;52.450;13.326;2023-03-13T14:47:52;16.50;99.90
3268;DHT22;1646;52.450;13.326;2023-03-13T14:52:53;16.50;99.90
3268;DHT22;1646;52.450;13.326;2023-03-13T14:57:57;16.50;99.90
3268;DHT22;1646;52.450;13.326;2023-03-13T15:03:15;16.50;99.90
3268;DHT22;1646;52.450;13.326;2023-03-13T15:08:18;16.80;99.90
3268;DHT22;1646;52.450;13.326;2023-03-13T15:13:23;16.80;99.90
3268;DHT22;1646;52.450;13.326;2023-03-13T15:18:25;17.20;99.90
3268;DHT22;1646;52.450;13.326;2023-03-13T15:23:24;17.00;99.90
3268;DHT22;1646;52.450;13.326;2023-03-13T15:28:24;17.00;99.90
3268;DHT22;1646;52.450;13.326;2023-03-13T15:33:27;17.40;99.90
3268;DHT22;1646;52.450;13.326;2023-03-13T15:38:26;18.80;99.90
3268;DHT22;1646;52.450;13.326;2023-03-13T15:43:25;18.60;99.90
3268;DHT22;1646;52.450;13.326;2023-03-13T15:48:26;17.70;99.90
3268;DHT22;1646;52.450;13.326;2023-03-13T15:53:26;17.30;99.90
3268;DHT22;1646;52.450;13.326;2023-03-13T15:58:25;17.00;99.90
3268;DHT22;1646;52.450;13.326;2023-03-13T16:03:26;16.70;99.90
3268;DHT22;1646;52.450;13.326;2023-03-13T16:08:27;16.60;99.90
3268;DHT22;1646;52.450;13.326;2023-03-13T16:13:32;16.50;99.90
3268;DHT22;1646;52.450;13.326;2023-03-13T16:18:32;16.40;99.90
3268;DHT22;1646;52.450;13.326;2023-03-13T16:23:30;16.30;99.90
3268;DHT22;1646;52.450;13.326;2023-03-13T16:28:29;16.20;99.90
3268;DHT22;1646;52.450;13.326;2023-03-13T16:33:27;16.10;99.90
3268;DHT22;1646;52.450;13.326;2023-03-13T16:38:27;16.10;99.90
3268;DHT22;1646;52.450;13.326;2023-03-13T16:43:25;16.10;99.90
3268;DHT22;1646;52.450;13.326;2023-03-13T16:48:23;16.00;99.90
3268;DHT22;1646;52.450;13.326;2023-03-13T16:53:22;16.00;99.90
3268;DHT22;1646;52.450;13.326;2023-03-13T16:58:21;16.00;99.90
3268;DHT22;1646;52.450;13.326;2023-03-13T17:03:20;15.90;99.90
3268;DHT22;1646;52.450;13.326;2023-03-13T17:08:18;15.80;99.90
3268;DHT22;1646;52.450;13.326;2023-03-13T17:13:16;15.80;99.90
3268;DHT22;1646;52.450;13.326;2023-03-13T17:18:17;15.70;99.90
3268;DHT22;1646;52.450;13.326;2023-03-13T17:23:15;15.70;99.90
3268;DHT22;1646;52.450;13.326;2023-03-13T17:28:14;15.60;99.90
3268;DHT22;1646;52.450;13.326;2023-03-13T17:33:12;15.60;99.90
3268;DHT22;1646;52.450;13.326;2023-03-13T17:38:12;15.50;99.90
3268;DHT22;1646;52.450;13.326;2023-03-13T17:43:10;15.50;99.90
3268;DHT22;1646;52.450;13.326;2023-03-13T17:48:11;15.40;99.90
3268;DHT22;1646;52.450;13.326;2023-03-13T17:53:10;15.40;99.90
3268;DHT22;1646;52.450;13.326;2023-03-13T17:58:09;15.30;99.90
3268;DHT22;1646;52.450;13.326;2023-03-13T18:03:08;15.30;99.90
3268;DHT22;1646;52.450;13.326;2023-03-13T18:08:08;15.30;99.90
3268;DHT22;1646;52.450;13.326;2023-03-13T18:13:09;15.30;99.90
3268;DHT22;1646;52.450;13.326;2023-03-13T18:18:14;15.30;99.90
3268;DHT22;1646;52.450;13.326;2023-03-13T18:23:12;15.20;99.90
3268;DHT22;1646;52.450;13.326;2023-03-13T18:28:12;15.20;99.90
3268;DHT22;1646;52.450;13.326;2023-03-13T18:33:10;15.30;99.90
3268;DHT22;1646;52.450;13.326;2023-03-13T18:38:09;15.20;99.90
3268;DHT22;1646;52.450;13.326;2023-03-13T18:43:09;15.20;99.90
3268;DHT22;1646;52.450;13.326;2023-03-13T18:48:10;15.20;99.90
3268;DHT22;1646;52.450;13.326;2023-03-13T18:53:08;15.20;99.90
3268;DHT22;1646;52.450;13.326;2023-03-13T18:58:08;15.20;99.90
3268;DHT22;1646;52.450;13.326;2023-03-13T19:03:07;15.20;99.90
3268;DHT22;1646;52.450;13.326;2023-03-13T19:08:09;15.20;99.90
3268;DHT22;1646;52.450;13.326;2023-03-13T19:13:07;15.20;99.90
3268;DHT22;1646;52.450;13.326;2023-03-13T19:18:09;15.20;99.90
3268;DHT22;1646;52.450;13.326;2023-03-13T19:23:10;15.20;99.90
3268;DHT22;1646;52.450;13.326;2023-03-13T19:28:08;15.10;99.90
3268;DHT22;1646;52.450;13.326;2023-03-13T19:33:07;15.10;99.90
3268;DHT22;1646;52.450;13.326;2023-03-13T19:38:07;15.10;99.90
3268;DHT22;1646;52.450;13.326;2023-03-13T19:43:08;15.10;99.90
3268;DHT22;1646;52.450;13.326;2023-03-13T19:48:07;15.10;99.90
3268;DHT22;1646;52.450;13.326;2023-03-13T19:53:06;14.90;99.90
3268;DHT22;1646;52.450;13.326;2023-03-13T19:58:04;14.90;99.90
3268;DHT22;1646;52.450;13.326;2023-03-13T20:03:04;14.90;99.90
3268;DHT22;1646;52.450;13.326;2023-03-13T20:08:03;14.80;99.90
3268;DHT22;1646;52.450;13.326;2023-03-13T20:13:02;14.80;99.90
3268;DHT22;1646;52.450;13.326;2023-03-13T20:18:00;14.70;99.90
3268;DHT22;1646;52.450;13.326;2023-03-13T20:23:00;14.70;99.90
3268;DHT22;1646;52.450;13.326;2023-03-13T20:27:58;14.70;99.90
3268;DHT22;1646;52.450;13.326;2023-03-13T20:32:56;14.60;99.90
3268;DHT22;1646;52.450;13.326;2023-03-13T20:37:56;14.50;99.90
3268;DHT22;1646;52.450;13.326;2023-03-13T20:42:58;14.50;99.90
3268;DHT22;1646;52.450;13.326;2023-03-13T20:47:56;14.50;99.90
3268;DHT22;1646;52.450;13.326;2023-03-13T20:52:54;14.50;99.90
3268;DHT22;1646;52.450;13.326;2023-03-13T20:57:53;14.60;99.90
3268;DHT22;1646;52.450;13.326;2023-03-13T21:02:53;14.50;99.90
3268;DHT22;1646;52.450;13.326;2023-03-13T21:07:51;14.50;99.90
3268;DHT22;1646;52.450;13.326;2023-03-13T21:12:50;14.50;99.90
3268;DHT22;1646;52.450;13.326;2023-03-13T21:17:48;14.50;99.90
3268;DHT22;1646;52.450;13.326;2023-03-13T21:22:48;14.50;99.90
3268;DHT22;1646;52.450;13.326;2023-03-13T21:27:46;14.50;99.90
3268;DHT22;1646;52.450;13.326;2023-03-13T21:32:45;14.50;99.90
3268;DHT22;1646;52.450;13.326;2023-03-13T21:37:44;14.50;99.90
3268;DHT22;1646;52.450;13.326;2023-03-13T21:42:43;14.50;99.90
3268;DHT22;1646;52.450;13.326;2023-03-13T21:47:42;14.40;99.90
3268;DHT22;1646;52.450;13.326;2023-03-13T21:52:40;14.40;99.90
3268;DHT22;1646;52.450;13.326;2023-03-13T21:57:38;14.40;99.90
3268;DHT22;1646;52.450;13.326;2023-03-13T22:02:38;14.40;99.90
3268;DHT22;1646;52.450;13.326;2023-03-13T22:07:37;14.30;99.90
3268;DHT22;1646;52.450;13.326;2023-03-13T22:12:35;14.30;99.90
3268;DHT22;1646;52.450;13.326;2023-03-13T22:17:34;14.30;99.90
3268;DHT22;1646;52.450;13.326;2023-03-13T22:22:33;14.20;99.90
3268;DHT22;1646;52.450;13.326;2023-03-13T22:27:32;14.20;99.90
3268;DHT22;1646;52.450;13.326;2023-03-13T22:32:30;14.20;99.90
3268;DHT22;1646;52.450;13.326;2023-03-13T22:37:29;14.20;99.90
3268;DHT22;1646;52.450;13.326;2023-03-13T22:42:28;14.20;99.90
3268;DHT22;1646;52.450;13.326;2023-03-13T22:47:27;14.20;99.90
3268;DHT22;1646;52.450;13.326;2023-03-13T22:52:25;14.20;99.90
3268;DHT22;1646;52.450;13.326;2023-03-13T22:57:28;14.20;99.90
3268;DHT22;1646;52.450;13.326;2023-03-13T23:02:26;14.20;99.90
3268;DHT22;1646;52.450;13.326;2023-03-13T23:07:26;14.20;99.90
3268;DHT22;1646;52.450;13.326;2023-03-13T23:12:25;14.10;99.90
3268;DHT22;1646;52.450;13.326;2023-03-13T23:17:29;14.10;99.90
3268;DHT22;1646;52.450;13.326;2023-03-13T23:22:27;14.10;99.90
3268;DHT22;1646;52.450;13.326;2023-03-13T23:27:28;14.00;99.90
3268;DHT22;1646;52.450;13.326;2023-03-13T23:32:29;14.00;99.90
3268;DHT22;1646;52.450;13.326;2023-03-13T23:37:27;14.10;99.90
3268;DHT22;1646;52.450;13.326;2023-03-13T23:42:26;13.90;99.90
3268;DHT22;1646;52.450;13.326;2023-03-13T23:47:25;13.90;99.90
3268;DHT22;1646;52.450;13.326;2023-03-13T23:52:25;13.70;99.90
3268;DHT22;1646;52.450;13.326;2023-03-13T23:57:24;13.70;99.90
